createdAt,value
2022-11-24T00:01:09.057Z,36.88
2022-11-24T00:03:35.953Z,31.00
2022-11-24T00:06:07.687Z,27.05
2022-11-24T00:08:35.407Z,30.80
2022-11-24T00:11:07.927Z,36.70
2022-11-24T00:13:35.412Z,32.88
2022-11-24T00:16:11.929Z,28.38
2022-11-24T00:18:42.805Z,24.27
2022-11-24T00:21:09.921Z,26.42
2022-11-24T00:23:37.373Z,35.08
2022-11-24T00:26:08.137Z,28.90
2022-11-24T00:28:35.745Z,37.35
2022-11-24T00:31:02.770Z,28.73
2022-11-24T00:33:29.402Z,32.65
2022-11-24T00:35:57.299Z,26.70
2022-11-24T00:38:24.367Z,31.40
2022-11-24T00:40:52.134Z,33.92
2022-11-24T00:43:19.417Z,30.08
2022-11-24T00:45:46.117Z,32.38
2022-11-24T00:48:12.640Z,34.10
2022-11-24T00:50:39.123Z,31.77
2022-11-24T00:53:05.654Z,28.30
2022-11-24T00:55:32.239Z,36.35
2022-11-24T00:57:58.786Z,24.63
2022-11-24T01:00:26.420Z,29.55
2022-11-24T01:02:53.281Z,20.63
2022-11-24T01:05:20.178Z,28.60
2022-11-24T01:07:46.726Z,28.48
2022-11-24T01:10:13.738Z,30.67
2022-11-24T01:12:40.271Z,25.40
2022-11-24T01:15:07.141Z,23.85
2022-11-24T01:17:33.702Z,28.20
2022-11-24T01:20:00.187Z,29.27
2022-11-24T01:22:27.476Z,18.02
2022-11-24T01:24:53.979Z,22.80
2022-11-24T01:27:20.470Z,36.05
2022-11-24T01:29:46.990Z,23.45
2022-11-24T01:32:13.529Z,23.95
2022-11-24T01:34:40.026Z,27.63
2022-11-24T01:37:06.516Z,21.27
2022-11-24T01:39:32.993Z,26.52
2022-11-24T01:42:02.256Z,25.15
2022-11-24T01:44:31.196Z,28.40
2022-11-24T01:47:02.510Z,23.02
2022-11-24T01:49:44.710Z,20.55
2022-11-24T01:52:17.305Z,24.92
2022-11-24T01:55:01.944Z,14.23
2022-11-24T01:57:33.722Z,13.93
2022-11-24T02:00:04.960Z,20.35
2022-11-24T02:02:31.547Z,17.83
2022-11-24T02:05:03.922Z,26.88
2022-11-24T02:07:31.037Z,23.35
2022-11-24T02:10:04.728Z,25.45
2022-11-24T02:12:32.839Z,23.87
2022-11-24T02:14:59.670Z,20.40
2022-11-24T02:17:26.197Z,22.33
2022-11-24T02:19:58.670Z,23.20
2022-11-24T02:23:02.367Z,18.08
2022-11-24T02:25:40.507Z,15.23
2022-11-24T02:28:10.467Z,23.98
2022-11-24T02:30:37.133Z,26.23
2022-11-24T02:33:04.009Z,20.65
2022-11-24T02:35:31.652Z,26.63
2022-11-24T02:37:58.200Z,22.75
2022-11-24T02:40:28.040Z,16.55
2022-11-24T02:42:58.805Z,16.77
2022-11-24T02:45:26.604Z,18.02
2022-11-24T02:47:53.070Z,15.75
2022-11-24T02:50:20.323Z,24.80
2022-11-24T02:52:46.906Z,16.02
2022-11-24T02:55:13.425Z,25.08
2022-11-24T02:57:39.894Z,20.75
2022-11-24T03:00:07.098Z,19.58
2022-11-24T03:02:33.735Z,26.73
2022-11-24T03:05:00.291Z,14.98
2022-11-24T03:07:26.822Z,26.27
2022-11-24T03:09:53.382Z,19.00
2022-11-24T03:12:20.427Z,19.70
2022-11-24T03:14:46.878Z,13.40
2022-11-24T03:17:13.413Z,15.07
2022-11-24T03:19:39.950Z,21.05
2022-11-24T03:22:06.459Z,16.30
2022-11-24T03:24:33.229Z,17.92
2022-11-24T03:26:59.852Z,18.73
2022-11-24T03:29:26.424Z,16.13
2022-11-24T03:31:52.939Z,12.45
2022-11-24T03:34:19.420Z,12.68
2022-11-24T03:36:45.905Z,13.88
2022-11-24T03:39:12.441Z,13.40
2022-11-24T03:41:39.005Z,10.15
2022-11-24T03:44:05.842Z,10.52
2022-11-24T03:46:32.516Z,13.15
2022-11-24T03:48:59.173Z,13.90
2022-11-24T03:51:25.674Z,16.05
2022-11-24T03:53:52.488Z,15.82
2022-11-24T03:56:18.940Z,11.65
2022-11-24T03:58:45.414Z,17.73
2022-11-24T04:01:11.937Z,12.70
2022-11-24T04:03:38.424Z,24.35
2022-11-24T04:06:04.919Z,16.52
2022-11-24T04:08:31.433Z,10.68
2022-11-24T04:10:58.176Z,19.52
2022-11-24T04:13:25.742Z,10.73
2022-11-24T04:15:52.921Z,16.52
2022-11-24T04:18:19.876Z,12.27
2022-11-24T04:20:48.683Z,15.73
2022-11-24T04:23:16.689Z,12.65
2022-11-24T04:25:43.769Z,16.38
2022-11-24T04:28:10.367Z,11.73
2022-11-24T04:30:38.529Z,16.02
2022-11-24T04:33:05.035Z,6.50
2022-11-24T04:35:31.499Z,14.48
2022-11-24T04:38:02.371Z,15.43
2022-11-24T04:40:28.955Z,10.85
2022-11-24T04:42:56.324Z,22.98
2022-11-24T04:45:23.489Z,12.38
2022-11-24T04:47:50.277Z,13.15
2022-11-24T04:50:17.349Z,11.57
2022-11-24T04:52:43.889Z,12.05
2022-11-24T04:55:11.149Z,11.45
2022-11-24T04:57:37.677Z,13.63
2022-11-24T05:00:04.549Z,15.05
2022-11-24T05:02:31.086Z,10.05
2022-11-24T05:04:57.650Z,14.23
2022-11-24T05:07:24.130Z,11.45
2022-11-24T05:10:09.056Z,15.63
2022-11-24T05:12:35.574Z,11.80
2022-11-24T05:15:04.566Z,11.15
2022-11-24T05:17:32.813Z,15.15
2022-11-24T05:19:59.911Z,9.35
2022-11-24T05:22:28.783Z,16.10
2022-11-24T05:24:55.375Z,19.27
2022-11-24T05:27:22.079Z,11.93
2022-11-24T05:29:48.676Z,13.40
2022-11-24T05:32:15.666Z,9.65
2022-11-24T05:34:42.211Z,18.20
2022-11-24T05:37:08.977Z,18.92
2022-11-24T05:39:36.337Z,18.17
2022-11-24T05:42:30.492Z,20.73
2022-11-24T05:44:57.574Z,16.75
2022-11-24T05:47:24.614Z,11.30
2022-11-24T05:49:52.031Z,11.82
2022-11-24T05:52:18.708Z,8.68
2022-11-24T05:54:45.212Z,11.10
2022-11-24T05:57:13.145Z,13.25
2022-11-24T05:59:39.631Z,15.20
2022-11-24T06:02:06.254Z,15.27
2022-11-24T06:04:33.333Z,15.05
2022-11-24T06:07:00.588Z,13.40
2022-11-24T06:09:27.254Z,17.85
2022-11-24T06:11:53.757Z,9.70
2022-11-24T06:14:20.480Z,11.02
2022-11-24T06:16:47.252Z,14.55
2022-11-24T06:19:13.864Z,13.52
2022-11-24T06:21:40.362Z,9.88
2022-11-24T06:24:07.399Z,13.57
2022-11-24T06:26:33.963Z,12.20
2022-11-24T06:29:00.645Z,18.60
2022-11-24T06:31:27.180Z,19.65
2022-11-24T06:33:53.887Z,15.52
2022-11-24T06:36:20.509Z,19.20
2022-11-24T06:38:47.040Z,11.98
2022-11-24T06:41:15.485Z,12.77
2022-11-24T06:43:42.434Z,22.75
2022-11-24T06:46:09.145Z,14.20
2022-11-24T06:48:35.829Z,19.92
2022-11-24T06:51:04.539Z,22.85
2022-11-24T06:53:38.295Z,14.60
2022-11-24T06:56:12.178Z,16.60
2022-11-24T06:58:44.954Z,31.58
2022-11-24T07:01:18.103Z,17.45
2022-11-24T07:03:45.530Z,11.82
2022-11-24T07:06:12.138Z,18.27
2022-11-24T07:08:38.709Z,30.02
2022-11-24T07:11:06.772Z,24.00
2022-11-24T07:13:33.338Z,14.80
2022-11-24T07:16:01.049Z,19.38
2022-11-24T07:18:27.644Z,14.40
2022-11-24T07:20:54.148Z,20.38
2022-11-24T07:23:20.626Z,18.08
2022-11-24T07:25:47.112Z,19.20
2022-11-24T07:28:13.689Z,19.20
2022-11-24T07:30:40.226Z,22.67
2022-11-24T07:33:06.802Z,21.92
2022-11-24T07:35:33.306Z,18.08
2022-11-24T07:37:59.837Z,15.43
2022-11-24T07:40:27.015Z,20.10
2022-11-24T07:42:54.430Z,18.55
2022-11-24T07:45:21.306Z,17.90
2022-11-24T07:47:47.878Z,16.35
2022-11-24T07:50:14.518Z,18.98
2022-11-24T07:52:41.143Z,14.55
2022-11-24T07:55:08.421Z,25.42
2022-11-24T07:57:35.512Z,11.90
2022-11-24T08:00:02.431Z,18.15
2022-11-24T08:02:28.939Z,18.83
2022-11-24T08:04:55.506Z,13.63
2022-11-24T08:07:22.113Z,17.55
2022-11-24T08:09:50.367Z,30.10
2022-11-24T08:12:21.520Z,20.17
2022-11-24T08:14:51.330Z,17.52
2022-11-24T08:17:18.383Z,17.08
2022-11-24T08:19:45.064Z,15.00
2022-11-24T08:22:11.894Z,21.63
2022-11-24T08:24:38.738Z,21.17
2022-11-24T08:27:05.260Z,15.73
2022-11-24T08:29:32.005Z,17.95
2022-11-24T08:31:58.614Z,17.42
2022-11-24T08:34:28.310Z,26.58
2022-11-24T08:36:54.808Z,21.08
2022-11-24T08:39:21.405Z,13.77
2022-11-24T08:41:47.886Z,11.82
2022-11-24T08:44:16.049Z,19.27
2022-11-24T08:46:42.691Z,15.55
2022-11-24T08:49:09.947Z,16.83
2022-11-24T08:51:37.302Z,14.55
2022-11-24T08:54:04.173Z,16.27
2022-11-24T08:56:32.645Z,21.73
2022-11-24T08:59:00.312Z,16.67
2022-11-24T09:01:27.925Z,19.08
2022-11-24T09:03:54.888Z,16.83
2022-11-24T09:06:25.319Z,17.75
2022-11-24T09:08:53.848Z,21.80
2022-11-24T09:11:21.077Z,15.30
2022-11-24T09:13:47.852Z,23.30
2022-11-24T09:16:20.277Z,18.00
2022-11-24T09:18:47.944Z,18.30
2022-11-24T09:21:17.555Z,17.35
2022-11-24T09:23:46.059Z,20.00
2022-11-24T09:26:15.239Z,14.45
2022-11-24T09:28:42.432Z,17.25
2022-11-24T09:31:12.904Z,20.00
2022-11-24T09:33:41.368Z,16.88
2022-11-24T09:36:09.026Z,17.77
2022-11-24T09:38:35.959Z,19.40
2022-11-24T09:41:17.413Z,17.27
2022-11-24T09:44:14.501Z,15.13
2022-11-24T09:46:59.899Z,11.13
2022-11-24T09:50:03.711Z,20.05
2022-11-24T09:52:40.708Z,21.58
2022-11-24T09:55:31.661Z,19.63
2022-11-24T09:58:10.876Z,16.55
2022-11-24T10:00:37.838Z,26.50
2022-11-24T10:03:05.630Z,17.95
2022-11-24T10:05:36.048Z,13.27
2022-11-24T10:08:14.680Z,23.05
2022-11-24T10:10:55.055Z,16.77
2022-11-24T10:13:38.566Z,17.67
2022-11-24T10:16:38.791Z,23.55
2022-11-24T10:19:36.961Z,18.40
2022-11-24T10:22:22.414Z,14.90
2022-11-24T10:25:08.760Z,14.43
2022-11-24T10:27:49.347Z,12.50
2022-11-24T10:30:22.067Z,14.60
2022-11-24T10:32:54.722Z,12.40
2022-11-24T10:35:28.100Z,22.92
2022-11-24T10:38:11.963Z,18.42
2022-11-24T10:41:00.472Z,16.92
2022-11-24T10:43:28.490Z,23.95
2022-11-24T10:46:00.136Z,16.55
2022-11-24T10:48:36.119Z,16.10
2022-11-24T10:51:28.841Z,17.50
2022-11-24T10:54:05.911Z,13.95
2022-11-24T10:56:40.277Z,16.80
2022-11-24T10:59:25.061Z,38.47
2022-11-24T11:01:53.207Z,17.92
2022-11-24T11:04:24.807Z,12.88
2022-11-24T11:06:51.470Z,14.20
2022-11-24T11:09:22.507Z,21.23
2022-11-24T11:11:52.674Z,12.45
2022-11-24T11:14:33.912Z,14.85
2022-11-24T11:17:00.490Z,13.68
2022-11-24T11:19:48.813Z,16.65
2022-11-24T11:22:21.025Z,18.52
2022-11-24T11:25:01.376Z,13.35
2022-11-24T11:27:27.997Z,18.42
2022-11-24T11:35:39.659Z,14.95
2022-11-24T11:38:07.432Z,16.45
2022-11-24T11:40:37.709Z,14.13
2022-11-24T11:43:24.913Z,15.60
2022-11-24T11:46:05.256Z,11.98
2022-11-24T11:48:42.416Z,9.73
2022-11-24T11:51:28.343Z,11.32
2022-11-24T11:54:19.615Z,18.33
2022-11-24T11:56:49.652Z,8.38
2022-11-24T11:59:36.908Z,15.52
2022-11-24T12:02:25.422Z,9.88
2022-11-24T12:05:05.255Z,16.10
2022-11-24T12:07:38.096Z,15.77
2022-11-24T12:10:41.657Z,13.07
2022-11-24T12:13:14.029Z,14.00
2022-11-24T12:15:56.421Z,11.95
2022-11-24T12:18:57.511Z,15.13
2022-11-24T12:21:54.826Z,16.50
2022-11-24T12:24:34.899Z,10.43
2022-11-24T12:27:10.662Z,25.02
2022-11-24T12:29:49.323Z,16.60
2022-11-24T12:32:19.845Z,12.90
2022-11-24T12:35:03.221Z,16.40
2022-11-24T12:37:49.771Z,17.85
2022-11-24T12:40:47.259Z,11.13
2022-11-24T12:43:38.797Z,15.30
2022-11-24T12:46:21.135Z,10.82
2022-11-24T12:49:21.430Z,9.00
2022-11-24T12:51:58.188Z,16.98
2022-11-24T12:54:29.571Z,11.65
2022-11-24T12:57:05.632Z,12.90
2022-11-24T13:00:07.695Z,12.85
2022-11-24T13:02:53.115Z,13.85
2022-11-24T13:05:46.718Z,13.27
2022-11-24T13:08:14.449Z,13.35
2022-11-24T13:10:57.986Z,15.30
2022-11-24T13:13:35.529Z,20.47
2022-11-24T13:19:07.900Z,12.10
2022-11-24T13:21:40.397Z,14.85
2022-11-24T13:24:23.853Z,14.27
2022-11-24T13:27:13.478Z,18.33
2022-11-24T13:29:42.244Z,19.92
2022-11-24T13:32:08.789Z,18.02
2022-11-24T13:34:42.787Z,15.85
2022-11-24T13:37:31.377Z,14.48
2022-11-24T13:40:03.701Z,20.20
2022-11-24T13:42:42.403Z,16.52
2022-11-24T13:45:39.788Z,18.45
2022-11-24T13:48:22.229Z,14.85
2022-11-24T13:50:58.454Z,16.85
2022-11-24T13:53:44.009Z,17.35
2022-11-24T13:56:13.356Z,20.77
2022-11-24T13:58:48.649Z,20.35
2022-11-24T14:01:21.856Z,20.27
2022-11-24T14:04:43.433Z,15.00
2022-11-24T14:07:09.035Z,14.20
2022-11-24T14:09:36.034Z,17.02
2022-11-24T14:12:20.423Z,15.27
2022-11-24T14:14:49.569Z,10.45
2022-11-24T14:17:24.623Z,22.20
2022-11-24T14:19:55.536Z,21.20
2022-11-24T14:22:48.369Z,15.48
2022-11-24T14:25:21.103Z,17.13
2022-11-24T14:27:47.860Z,18.25
2022-11-24T14:30:14.362Z,15.02
2022-11-24T14:32:42.233Z,15.85
2022-11-24T14:35:25.321Z,20.17
2022-11-24T14:37:52.177Z,10.60
2022-11-24T14:40:40.573Z,17.15
2022-11-24T14:43:18.796Z,13.05
2022-11-24T14:46:01.264Z,17.67
2022-11-24T14:48:39.819Z,14.45
2022-11-24T14:51:14.603Z,16.27
2022-11-24T14:53:43.654Z,29.23
2022-11-24T14:56:30.448Z,27.92
2022-11-24T14:58:58.233Z,23.25
2022-11-24T15:01:27.837Z,25.13
2022-11-24T15:04:38.756Z,18.42
2022-11-24T15:07:19.151Z,26.17
2022-11-24T15:09:48.728Z,20.15
2022-11-24T15:12:43.164Z,14.65
2022-11-24T15:15:15.681Z,23.53
2022-11-24T15:17:49.986Z,20.30
2022-11-24T15:20:19.325Z,26.73
2022-11-24T15:22:45.840Z,16.83
2022-11-24T15:25:33.923Z,21.73
2022-11-24T15:28:01.013Z,21.33
2022-11-24T15:30:28.183Z,31.00
2022-11-24T15:32:57.444Z,19.52
2022-11-24T15:35:26.009Z,22.35
2022-11-24T15:37:52.995Z,22.20
2022-11-24T15:40:20.208Z,17.33
2022-11-24T15:42:54.058Z,19.63
2022-11-24T15:45:22.871Z,13.68
2022-11-24T15:47:51.154Z,22.23
2022-11-24T15:50:18.532Z,19.70
2022-11-24T15:52:45.972Z,20.70
2022-11-24T15:55:18.727Z,36.30
2022-11-24T15:57:46.027Z,20.40
2022-11-24T16:00:18.406Z,22.50
2022-11-24T16:02:45.259Z,19.80
2022-11-24T16:05:13.239Z,22.95
2022-11-24T16:07:40.495Z,16.88
2022-11-24T16:10:14.847Z,27.05
2022-11-24T16:12:41.432Z,20.10
2022-11-24T16:15:08.466Z,19.48
2022-11-24T16:17:35.195Z,23.52
2022-11-24T16:20:03.102Z,35.88
2022-11-24T16:22:29.908Z,22.88
2022-11-24T16:24:56.712Z,26.25
2022-11-24T16:27:23.331Z,29.80
2022-11-24T16:29:49.894Z,26.17
2022-11-24T16:32:16.524Z,36.58
2022-11-24T16:34:43.086Z,38.08
2022-11-24T16:37:09.895Z,35.90
2022-11-24T16:39:36.414Z,27.77
2022-11-24T16:42:03.612Z,44.85
2022-11-24T16:44:30.121Z,37.50
2022-11-24T16:46:57.115Z,27.83
2022-11-24T16:49:23.630Z,39.38
2022-11-24T16:51:50.255Z,29.42
2022-11-24T16:54:16.720Z,31.60
2022-11-24T16:56:44.404Z,28.10
2022-11-24T16:59:10.926Z,33.30
2022-11-24T17:01:40.056Z,47.83
2022-11-24T17:04:12.263Z,25.10
2022-11-24T17:06:39.688Z,32.33
2022-11-24T17:09:06.806Z,23.83
2022-11-24T17:11:33.333Z,34.20
2022-11-24T17:13:59.792Z,26.77
2022-11-24T17:16:27.553Z,29.95
2022-11-24T17:18:55.320Z,26.65
2022-11-24T17:21:26.962Z,26.42
2022-11-24T17:23:56.565Z,23.27
2022-11-24T17:26:23.887Z,25.23
2022-11-24T17:28:50.915Z,30.73
2022-11-24T17:31:35.819Z,26.05
2022-11-24T17:34:05.620Z,28.27
2022-11-24T17:36:33.781Z,42.47
2022-11-24T17:39:04.378Z,28.73
2022-11-24T17:41:31.743Z,35.40
2022-11-24T17:43:58.310Z,45.53
2022-11-24T17:46:26.617Z,32.33
2022-11-24T17:48:53.892Z,34.58
2022-11-24T17:51:22.953Z,40.80
2022-11-24T17:53:52.245Z,35.00
2022-11-24T17:56:24.097Z,27.58
2022-11-24T17:58:56.073Z,28.60
2022-11-24T18:01:23.450Z,34.33
2022-11-24T18:03:53.428Z,37.13
2022-11-24T18:06:20.517Z,30.20
2022-11-24T18:08:47.667Z,45.20
2022-11-24T18:11:14.181Z,40.35
2022-11-24T18:13:56.741Z,30.08
2022-11-24T18:16:28.256Z,36.67
2022-11-24T18:19:07.808Z,31.67
2022-11-24T18:21:35.214Z,42.90
2022-11-24T18:24:01.911Z,40.53
2022-11-24T18:26:28.799Z,39.53
2022-11-24T18:28:55.350Z,47.88
2022-11-24T18:31:22.509Z,36.92
2022-11-24T18:33:49.416Z,39.42
2022-11-24T18:36:18.953Z,45.80
2022-11-24T18:38:46.038Z,45.38
2022-11-24T18:41:14.096Z,42.80
2022-11-24T18:43:41.204Z,59.38
2022-11-24T18:46:11.498Z,53.40
2022-11-24T18:48:38.093Z,51.95
2022-11-24T18:51:05.106Z,56.63
2022-11-24T18:53:31.700Z,53.67
2022-11-24T18:56:00.691Z,39.83
2022-11-24T18:58:30.211Z,46.78
2022-11-24T19:01:14.539Z,57.33
2022-11-24T19:03:48.662Z,51.55
2022-11-24T19:06:20.864Z,53.60
2022-11-24T19:08:48.347Z,48.30
2022-11-24T19:11:28.112Z,43.72
2022-11-24T19:13:56.097Z,45.60
2022-11-24T19:16:23.338Z,55.40
2022-11-24T19:18:54.146Z,52.15
2022-11-24T19:21:21.471Z,48.65
2022-11-24T19:23:48.007Z,45.72
2022-11-24T19:26:14.883Z,36.40
2022-11-24T19:28:41.396Z,41.35
2022-11-24T19:31:10.853Z,31.52
2022-11-24T19:33:37.816Z,32.10
2022-11-24T19:36:11.983Z,38.03
2022-11-24T19:38:39.094Z,54.55
2022-11-24T19:41:08.790Z,31.60
2022-11-24T19:43:35.504Z,29.65
2022-11-24T19:46:04.474Z,28.20
2022-11-24T19:48:36.573Z,29.45
2022-11-24T19:51:08.278Z,29.13
2022-11-24T19:53:35.828Z,34.80
2022-11-24T19:56:11.285Z,38.97
2022-11-24T19:58:39.130Z,30.27
2022-11-24T20:01:10.814Z,32.10
2022-11-24T20:03:39.225Z,29.27
2022-11-24T20:06:08.147Z,39.72
2022-11-24T20:08:37.191Z,36.47
2022-11-24T20:11:09.445Z,33.50
2022-11-24T20:13:37.627Z,34.75
2022-11-24T20:16:06.184Z,36.80
2022-11-24T20:18:37.611Z,35.47
2022-11-24T20:21:13.671Z,39.17
2022-11-24T20:23:41.189Z,41.53
2022-11-24T20:26:22.868Z,36.58
2022-11-24T20:28:50.641Z,28.33
2022-11-24T20:31:23.181Z,36.05
2022-11-24T20:33:49.808Z,35.92
2022-11-24T20:36:19.904Z,33.58
2022-11-24T20:38:47.579Z,37.42
2022-11-24T20:41:16.821Z,34.80
2022-11-24T20:43:44.730Z,46.92
2022-11-24T20:46:20.502Z,37.08
2022-11-24T20:48:47.511Z,38.90
2022-11-24T20:51:22.700Z,37.95
2022-11-24T20:53:50.624Z,29.40
2022-11-24T20:56:25.489Z,25.65
2022-11-24T20:58:52.486Z,23.05
2022-11-24T21:01:25.079Z,30.10
2022-11-24T21:03:53.828Z,30.45
2022-11-24T21:06:20.791Z,32.83
2022-11-24T21:08:47.345Z,27.25
2022-11-24T21:11:15.142Z,29.55
2022-11-24T21:13:44.354Z,32.70
2022-11-24T21:16:25.301Z,32.30
2022-11-24T21:18:54.941Z,26.88
2022-11-24T21:21:23.109Z,28.25
2022-11-24T21:23:50.402Z,28.00
2022-11-24T21:26:18.107Z,23.90
2022-11-24T21:28:46.709Z,34.47
2022-11-24T21:31:19.653Z,26.58
2022-11-24T21:33:51.929Z,33.20
2022-11-24T21:36:21.990Z,26.15
2022-11-24T21:38:53.164Z,23.13
2022-11-24T21:41:20.711Z,27.42
2022-11-24T21:43:47.863Z,23.23
2022-11-24T21:46:14.805Z,23.05
2022-11-24T21:48:42.347Z,30.80
2022-11-24T21:51:15.498Z,28.25
2022-11-24T21:53:43.865Z,21.45
2022-11-24T21:56:13.089Z,29.73
2022-11-24T21:58:48.175Z,38.60
2022-11-24T22:01:16.481Z,27.17
2022-11-24T22:03:43.958Z,33.42
2022-11-24T22:06:10.806Z,25.88
2022-11-24T22:08:37.599Z,29.85
2022-11-24T22:11:07.210Z,36.17
2022-11-24T22:13:34.502Z,34.72
2022-11-24T22:16:06.655Z,28.90
2022-11-24T22:18:34.687Z,29.70
2022-11-24T22:21:04.972Z,31.98
2022-11-24T22:23:32.484Z,31.50
2022-11-24T22:26:29.012Z,33.05
2022-11-24T22:28:57.112Z,29.98
2022-11-24T22:31:32.275Z,27.27
2022-11-24T22:34:00.662Z,27.25
2022-11-24T22:36:30.075Z,30.48
2022-11-24T22:39:04.345Z,30.05
2022-11-24T22:41:32.834Z,34.75
2022-11-24T22:43:59.321Z,35.70
2022-11-24T22:46:27.973Z,27.63
2022-11-24T22:48:55.308Z,26.15
2022-11-24T22:51:29.309Z,30.23
2022-11-24T22:53:58.092Z,34.45
2022-11-24T22:56:25.356Z,34.20
2022-11-24T22:58:52.047Z,39.45
2022-11-24T23:01:25.876Z,34.15
2022-11-24T23:03:56.467Z,35.38
2022-11-24T23:06:25.821Z,32.03
2022-11-24T23:08:53.277Z,26.98
2022-11-24T23:11:31.585Z,31.60
2022-11-24T23:14:02.420Z,33.38
2022-11-24T23:16:30.114Z,25.70
2022-11-24T23:18:57.496Z,31.60
2022-11-24T23:21:29.775Z,33.15
2022-11-24T23:23:58.306Z,30.52
2022-11-24T23:26:34.230Z,31.70
2022-11-24T23:29:00.862Z,34.58
2022-11-24T23:31:28.860Z,32.05
2022-11-24T23:33:59.918Z,37.22
2022-11-24T23:36:27.717Z,32.92
2022-11-24T23:38:54.446Z,32.20
2022-11-24T23:41:24.046Z,34.50
2022-11-24T23:43:53.642Z,40.38
2022-11-24T23:46:22.332Z,36.33
2022-11-24T23:48:50.688Z,37.30
2022-11-24T23:51:23.192Z,32.67
2022-11-24T23:53:50.757Z,37.63
2022-11-24T23:56:20.003Z,31.33
2022-11-24T23:58:47.078Z,42.13
